Time;durP1;ratioP1;P1;durP2;ratioP2;P2;SDS_P1;SDS_P2;PMS_P1;PMS_P2;Temp;Humidity;BMP_temperature;BMP_pressure;BME280_temperature;BME280_humidity;BME280_pressure;Samples;Min_cycle;Max_cycle;Signal;HPM_P1;HPM_P2
2023/06/10 00:00:47;;;;;;;6.50;2.90;;;;;;;16.04;61.65;100986.96;108300;1252;69671;-54
2023/06/10 00:03:14;;;;;;;6.60;3.30;;;;;;;15.99;62.04;100986.38;107719;1251;72541;-50
2023/06/10 00:05:41;;;;;;;5.00;2.70;;;;;;;15.93;62.38;100988.42;107171;1253;62057;-54
2023/06/10 00:08:07;;;;;;;5.10;3.00;;;;;;;15.87;62.77;100988.48;107757;1255;60434;-52
2023/06/10 00:10:35;;;;;;;6.70;3.30;;;;;;;15.81;63.10;100991.13;107282;1255;72654;-55
2023/06/10 00:13:04;;;;;;;6.10;3.30;;;;;;;15.73;63.48;100993.24;107501;1253;71224;-57
2023/06/10 00:15:31;;;;;;;6.40;3.20;;;;;;;15.65;64.06;100991.21;107182;1251;71444;-55
2023/06/10 00:17:57;;;;;;;6.40;3.10;;;;;;;15.58;64.43;100995.77;107512;1253;60721;-56
2023/06/10 00:20:25;;;;;;;7.00;3.10;;;;;;;15.51;65.05;100993.73;107843;1250;61308;-56
2023/06/10 00:22:52;;;;;;;5.40;3.20;;;;;;;15.46;65.55;100995.59;107539;1251;73797;-52
2023/06/10 00:25:19;;;;;;;6.20;2.90;;;;;;;15.42;65.70;100994.64;107408;1251;69939;-55
2023/06/10 00:27:45;;;;;;;6.50;3.10;;;;;;;15.38;65.98;100994.56;107216;1255;71260;-52
2023/06/10 00:30:13;;;;;;;8.30;3.20;;;;;;;15.34;66.43;100998.66;107299;1250;60353;-52
2023/06/10 00:32:39;;;;;;;6.70;3.20;;;;;;;15.29;67.18;100995.37;107504;1251;60915;-51
2023/06/10 00:35:06;;;;;;;6.70;3.60;;;;;;;15.24;67.39;100996.16;107622;1251;73259;-52
2023/06/10 00:37:37;;;;;;;5.50;3.60;;;;;;;15.19;68.27;100997.50;107650;1254;71055;-55
2023/06/10 00:40:04;;;;;;;7.40;3.50;;;;;;;15.15;68.61;101001.29;108131;1251;73771;-52
2023/06/10 00:42:31;;;;;;;6.60;3.10;;;;;;;15.10;68.66;101003.52;107298;1250;60435;-57
2023/06/10 00:44:57;;;;;;;7.80;3.50;;;;;;;15.05;69.27;101008.21;107170;1251;60748;-55
2023/06/10 00:47:25;;;;;;;8.10;3.20;;;;;;;14.99;69.83;101007.50;107360;1255;60325;-52
2023/06/10 00:49:53;;;;;;;8.60;3.70;;;;;;;14.95;70.33;101005.37;107483;1252;71405;-54
2023/06/10 00:52:22;;;;;;;6.80;3.40;;;;;;;14.91;71.07;101004.14;107349;1250;73072;-54
2023/06/10 00:54:48;;;;;;;6.30;3.20;;;;;;;14.86;71.68;101001.70;107579;1253;60762;-56
2023/06/10 00:57:15;;;;;;;6.70;3.60;;;;;;;14.82;71.89;101000.48;107725;1250;60520;-56
2023/06/10 00:59:47;;;;;;;9.80;3.50;;;;;;;14.78;72.12;101007.56;107403;1255;74173;-53
2023/06/10 01:02:14;;;;;;;8.00;4.00;;;;;;;14.74;72.30;101008.60;107454;1256;71192;-55
2023/06/10 01:04:41;;;;;;;7.00;4.00;;;;;;;14.69;72.52;101009.80;107351;1256;72662;-52
2023/06/10 01:07:35;;;;;;;9.10;3.70;;;;;;;14.64;72.72;101010.25;107179;1251;62002;-51
2023/06/10 01:10:19;;;;;;;7.40;3.70;;;;;;;14.59;72.67;101011.61;107469;1252;60349;-56
2023/06/10 01:12:59;;;;;;;6.50;3.30;;;;;;;14.53;73.00;101005.53;106945;1256;228173;-54
2023/06/10 01:15:26;;;;;;;6.90;3.80;;;;;;;14.47;73.05;101010.92;108352;1253;69384;-55
2023/06/10 01:18:03;;;;;;;7.40;3.60;;;;;;;14.41;73.82;101015.55;108860;1251;72775;-51
2023/06/10 01:20:33;;;;;;;7.50;3.80;;;;;;;14.36;74.97;101012.17;106900;1251;60927;-57
2023/06/10 01:23:02;;;;;;;8.10;4.00;;;;;;;14.31;75.70;101012.08;106915;1251;60351;-55
2023/06/10 01:25:32;;;;;;;9.00;4.20;;;;;;;14.25;76.49;101013.27;106683;1251;72911;-57
2023/06/10 01:28:10;;;;;;;8.50;4.00;;;;;;;14.20;76.47;101018.02;107108;1251;70574;-53
2023/06/10 01:30:45;;;;;;;6.70;4.20;;;;;;;14.14;76.84;101016.78;107288;1257;71861;-53
2023/06/10 01:33:16;;;;;;;9.60;4.40;;;;;;;14.08;77.39;101013.59;107151;1251;62143;-57
2023/06/10 01:35:44;;;;;;;9.70;4.10;;;;;;;14.03;77.69;101007.47;107184;1255;60390;-56
2023/06/10 01:38:14;;;;;;;8.00;3.70;;;;;;;13.97;78.32;101003.77;106902;1256;73927;-54
2023/06/10 01:40:42;;;;;;;9.10;4.10;;;;;;;13.90;78.49;101006.05;107030;1254;70111;-54
2023/06/10 01:43:08;;;;;;;7.70;3.50;;;;;;;13.83;78.97;101007.48;106556;1255;72735;-55
2023/06/10 01:45:35;;;;;;;11.20;4.30;;;;;;;13.76;79.73;101009.36;106860;1252;60444;-52
2023/06/10 01:48:01;;;;;;;8.60;4.10;;;;;;;13.70;80.09;101012.86;106646;1250;61014;-56
2023/06/10 01:50:28;;;;;;;8.50;3.80;;;;;;;13.64;80.31;101008.20;107213;1254;61355;-53
2023/06/10 01:52:54;;;;;;;9.90;3.90;;;;;;;13.60;80.84;101009.59;107551;1254;60338;-54
2023/06/10 01:55:21;;;;;;;9.80;4.80;;;;;;;13.55;81.12;101011.05;106781;1250;60593;-56
2023/06/10 01:57:47;;;;;;;9.60;4.60;;;;;;;13.51;81.54;101009.08;106713;1257;61098;-53
2023/06/10 02:00:15;;;;;;;8.80;4.70;;;;;;;13.46;81.59;101011.39;106699;1254;60326;-53
2023/06/10 02:02:42;;;;;;;9.10;4.70;;;;;;;13.41;82.22;101019.52;107125;1253;72737;-55
2023/06/10 02:05:08;;;;;;;10.00;5.10;;;;;;;13.36;82.25;101025.24;106674;1251;71057;-55
2023/06/10 02:07:35;;;;;;;10.00;5.40;;;;;;;13.31;82.38;101019.45;106959;1251;71515;-53
2023/06/10 02:10:03;;;;;;;11.90;6.20;;;;;;;13.26;82.71;101020.91;107100;1250;60767;-57
2023/06/10 02:12:29;;;;;;;7.90;4.50;;;;;;;13.20;83.05;101023.03;107473;1255;61684;-55
2023/06/10 02:14:56;;;;;;;8.30;4.90;;;;;;;13.16;83.12;101025.52;106716;1257;73944;-51
2023/06/10 02:17:23;;;;;;;10.00;4.90;;;;;;;13.12;83.53;101025.16;106669;1254;60226;-56
2023/06/10 02:19:52;;;;;;;8.20;4.50;;;;;;;13.06;84.51;101025.91;106890;1254;71419;-55
2023/06/10 02:22:22;;;;;;;10.70;4.80;;;;;;;13.01;84.76;101031.83;106612;1251;62114;-58
2023/06/10 02:24:49;;;;;;;9.90;4.40;;;;;;;12.97;85.11;101037.16;106646;1251;59394;-52
2023/06/10 02:27:17;;;;;;;8.20;4.50;;;;;;;12.92;85.78;101036.29;106754;1255;73008;-59
2023/06/10 02:29:43;;;;;;;9.80;4.80;;;;;;;12.88;86.26;101042.88;107897;1251;69357;-54
2023/06/10 02:32:10;;;;;;;11.10;5.10;;;;;;;12.84;86.68;101046.91;106567;1252;71432;-57
2023/06/10 02:34:37;;;;;;;11.20;5.20;;;;;;;12.80;86.94;101049.81;106644;1255;61728;-53
2023/06/10 02:37:04;;;;;;;9.40;5.20;;;;;;;12.77;87.31;101048.41;106873;1251;61233;-61
2023/06/10 02:39:30;;;;;;;9.80;5.40;;;;;;;12.73;87.88;101047.12;106600;1251;73940;-50
2023/06/10 02:41:57;;;;;;;11.10;5.60;;;;;;;12.69;88.34;101045.41;107046;1251;71075;-51
2023/06/10 02:44:24;;;;;;;12.70;5.60;;;;;;;12.66;88.72;101048.09;106656;1254;60802;-57
2023/06/10 02:46:50;;;;;;;11.10;5.20;;;;;;;12.62;89.05;101044.98;107536;1251;60429;-52
2023/06/10 02:49:17;;;;;;;10.50;5.50;;;;;;;12.58;89.46;101050.98;107466;1251;60540;-54
2023/06/10 02:51:44;;;;;;;11.50;5.30;;;;;;;12.55;89.72;101055.38;107083;1251;60443;-56
2023/06/10 02:54:10;;;;;;;9.80;5.30;;;;;;;12.52;89.79;101052.05;106647;1251;71180;-50
2023/06/10 02:56:37;;;;;;;13.30;6.00;;;;;;;12.48;90.43;101052.02;106700;1254;60455;-51
2023/06/10 02:59:03;;;;;;;10.20;5.40;;;;;;;12.45;91.02;101053.70;106760;1254;62092;-54
2023/06/10 03:01:31;;;;;;;11.50;5.60;;;;;;;12.43;91.17;101056.65;106621;1256;60426;-51
2023/06/10 03:03:58;;;;;;;9.10;5.40;;;;;;;12.39;91.54;101054.92;107521;1254;72624;-54
2023/06/10 03:06:26;;;;;;;11.10;5.40;;;;;;;12.37;91.58;101053.05;107309;1251;70141;-52
2023/06/10 03:08:52;;;;;;;10.10;5.90;;;;;;;12.35;91.75;101055.95;106668;1254;72638;-57
2023/06/10 03:11:19;;;;;;;10.60;5.60;;;;;;;12.33;92.12;101060.33;106770;1256;60752;-54
2023/06/10 03:13:46;;;;;;;11.40;5.50;;;;;;;12.30;92.52;101060.14;106858;1251;60523;-51
2023/06/10 03:16:13;;;;;;;9.80;5.80;;;;;;;12.27;92.78;101059.72;106523;1251;72669;-56
2023/06/10 03:18:39;;;;;;;13.30;5.50;;;;;;;12.24;92.73;101058.95;107055;1251;71106;-58
2023/06/10 03:21:06;;;;;;;11.00;5.70;;;;;;;12.23;92.75;101057.45;107174;1251;71436;-54
2023/06/10 03:23:33;;;;;;;9.70;5.40;;;;;;;12.21;93.40;101056.96;106755;1251;60424;-58
2023/06/10 03:26:00;;;;;;;13.20;5.90;;;;;;;12.19;93.39;101065.52;107372;1251;60264;-55
2023/06/10 03:28:26;;;;;;;11.60;6.00;;;;;;;12.18;93.69;101060.72;107045;1251;73892;-53
2023/06/10 03:30:53;;;;;;;12.30;6.50;;;;;;;12.17;93.78;101059.95;106582;1254;60638;-53
2023/06/10 03:33:19;;;;;;;12.90;5.90;;;;;;;12.17;94.12;101065.84;106637;1251;60553;-58
2023/06/10 03:35:46;;;;;;;12.20;6.00;;;;;;;12.16;94.04;101057.52;106877;1251;62014;-51
2023/06/10 03:38:13;;;;;;;11.80;5.90;;;;;;;12.17;93.89;101058.00;106750;1250;61095;-57
2023/06/10 03:40:40;;;;;;;11.50;6.00;;;;;;;12.18;93.92;101058.45;107383;1254;73888;-58
2023/06/10 03:43:06;;;;;;;11.90;6.20;;;;;;;12.17;94.07;101062.77;107274;1251;71318;-51
2023/06/10 03:45:33;;;;;;;12.40;6.10;;;;;;;12.17;94.09;101069.36;106910;1255;60520;-53
2023/06/10 03:48:03;;;;;;;12.90;7.00;;;;;;;12.17;94.26;101077.29;106886;1251;61784;-52
2023/06/10 03:50:30;;;;;;;13.70;6.40;;;;;;;12.19;94.52;101082.98;106545;1254;60538;-55
2023/06/10 03:52:58;;;;;;;10.00;6.00;;;;;;;12.20;94.69;101083.52;107059;1251;72333;-50
2023/06/10 03:55:24;;;;;;;13.00;6.40;;;;;;;12.23;94.74;101088.72;106786;1254;70649;-55
2023/06/10 03:57:51;;;;;;;14.90;5.90;;;;;;;12.26;94.99;101090.48;106807;1251;72702;-54
2023/06/10 04:00:21;;;;;;;10.80;6.60;;;;;;;12.30;95.29;101084.33;107467;1251;60439;-50
2023/06/10 04:02:51;;;;;;;11.30;6.00;;;;;;;12.37;95.17;101090.03;107157;1251;59548;-53
2023/06/10 04:05:21;;;;;;;10.00;6.20;;;;;;;12.45;95.48;101090.48;106865;1251;72567;-53
2023/06/10 04:07:48;;;;;;;11.40;6.60;;;;;;;12.53;95.60;101086.27;106798;1254;71347;-50
2023/06/10 04:10:15;;;;;;;13.90;6.50;;;;;;;12.62;95.42;101087.77;106616;1251;71480;-55
2023/06/10 04:12:42;;;;;;;11.30;6.30;;;;;;;12.71;95.34;101091.69;106889;1251;60434;-58
2023/06/10 04:15:09;;;;;;;10.40;5.90;;;;;;;12.83;95.17;101086.59;106899;1251;61097;-57
2023/06/10 04:17:36;;;;;;;11.90;6.10;;;;;;;12.92;94.62;101079.66;107340;1250;73620;-52
2023/06/10 04:20:06;;;;;;;11.00;6.10;;;;;;;12.98;94.30;101078.59;106609;1254;61007;-55
2023/06/10 04:22:32;;;;;;;14.70;6.40;;;;;;;13.01;94.19;101083.64;107181;1251;73994;-55
2023/06/10 04:24:59;;;;;;;10.60;6.10;;;;;;;13.06;93.89;101089.20;106881;1256;60734;-55
2023/06/10 04:27:25;;;;;;;10.00;5.80;;;;;;;13.13;93.90;101080.70;107212;1251;60437;-58
2023/06/10 04:29:52;;;;;;;9.80;5.70;;;;;;;13.19;93.65;101079.61;106884;1251;72671;-52
2023/06/10 04:32:19;;;;;;;9.90;6.10;;;;;;;13.24;93.54;101078.34;106942;1254;71827;-57
2023/06/10 04:34:45;;;;;;;10.40;5.50;;;;;;;13.27;93.07;101077.08;107555;1251;72065;-55
2023/06/10 04:37:12;;;;;;;10.80;5.60;;;;;;;13.30;92.89;101077.27;107128;1251;60577;-53
2023/06/10 04:39:38;;;;;;;8.90;5.00;;;;;;;13.34;92.80;101079.98;107113;1251;60299;-57
2023/06/10 04:42:05;;;;;;;12.50;5.90;;;;;;;13.39;92.64;101078.05;107148;1254;60322;-59
2023/06/10 04:44:32;;;;;;;11.50;5.60;;;;;;;13.42;92.36;101076.93;107062;1253;69684;-57
2023/06/10 04:46:58;;;;;;;9.10;5.70;;;;;;;13.46;92.26;101074.86;106673;1254;61618;-53
2023/06/10 04:49:25;;;;;;;9.30;5.50;;;;;;;13.50;91.89;101076.21;106688;1251;60611;-55
2023/06/10 04:51:52;;;;;;;11.40;6.00;;;;;;;13.56;92.16;101078.11;107214;1250;60632;-50
2023/06/10 04:54:18;;;;;;;11.40;5.40;;;;;;;13.61;91.63;101083.14;107082;1251;60438;-58
2023/06/10 04:56:45;;;;;;;9.60;5.00;;;;;;;13.68;91.43;101083.76;106812;1254;60882;-56
2023/06/10 04:59:11;;;;;;;10.70;5.00;;;;;;;13.75;91.27;101080.93;107055;1250;59549;-54
2023/06/10 05:01:38;;;;;;;10.00;5.20;;;;;;;13.81;91.01;101080.89;107246;1251;60529;-51
2023/06/10 05:04:04;;;;;;;12.90;5.30;;;;;;;13.88;90.51;101079.60;106606;1251;60549;-51
2023/06/10 05:06:31;;;;;;;10.30;4.90;;;;;;;13.93;90.31;101078.23;106648;1254;73978;-56
2023/06/10 05:08:57;;;;;;;9.60;5.10;;;;;;;14.01;90.11;101077.14;106965;1251;60827;-55
2023/06/10 05:11:24;;;;;;;14.90;5.10;;;;;;;14.10;89.97;101082.73;106664;1254;60421;-59
2023/06/10 05:13:51;;;;;;;9.20;5.00;;;;;;;14.18;89.80;101082.64;106678;1251;61745;-54
2023/06/10 05:16:17;;;;;;;7.90;4.50;;;;;;;14.25;89.32;101090.36;106949;1250;60420;-53
2023/06/10 05:18:44;;;;;;;8.80;4.80;;;;;;;14.32;88.97;101092.33;107311;1251;71918;-58
2023/06/10 05:21:11;;;;;;;9.90;4.60;;;;;;;14.37;88.51;101090.89;106828;1254;60876;-52
2023/06/10 05:23:38;;;;;;;10.10;4.70;;;;;;;14.44;88.60;101089.27;106717;1251;71552;-54
2023/06/10 05:26:04;;;;;;;9.90;4.90;;;;;;;14.52;88.19;101087.01;107014;1254;60964;-54
2023/06/10 05:28:31;;;;;;;9.70;4.80;;;;;;;14.60;87.79;101085.47;106615;1253;60303;-60
2023/06/10 05:30:57;;;;;;;8.90;5.10;;;;;;;14.68;87.62;101086.08;106875;1251;60437;-54
2023/06/10 05:33:23;;;;;;;9.30;4.70;;;;;;;14.76;87.10;101090.95;107003;1251;60491;-54
2023/06/10 05:35:50;;;;;;;10.20;4.80;;;;;;;14.86;86.83;101085.27;106651;1250;60523;-52
2023/06/10 05:38:17;;;;;;;11.30;4.50;;;;;;;14.95;86.30;101085.92;107237;1254;59202;-54
2023/06/10 05:40:43;;;;;;;9.50;5.00;;;;;;;15.04;86.08;101087.19;106532;1251;60408;-55
2023/06/10 05:43:11;;;;;;;9.80;4.80;;;;;;;15.18;85.91;101088.88;107030;1251;60440;-55
2023/06/10 05:45:37;;;;;;;9.30;4.60;;;;;;;15.32;85.28;101085.14;107222;1251;70274;-55
2023/06/10 05:48:04;;;;;;;11.00;4.70;;;;;;;15.45;84.61;101080.89;106873;1251;71130;-52
2023/06/10 05:50:34;;;;;;;9.80;5.00;;;;;;;15.58;84.11;101081.86;106746;1251;61365;-52
2023/06/10 05:53:01;;;;;;;10.10;5.20;;;;;;;15.69;83.31;101084.14;106850;1251;60934;-55
2023/06/10 05:55:27;;;;;;;9.30;4.30;;;;;;;15.80;83.10;101085.41;107188;1251;60360;-56
2023/06/10 05:58:00;;;;;;;9.90;4.70;;;;;;;15.95;82.76;101079.04;106844;1250;60911;-53
2023/06/10 06:00:27;;;;;;;9.40;4.40;;;;;;;16.08;82.06;101080.67;106690;1254;72549;-55
2023/06/10 06:02:54;;;;;;;9.30;4.30;;;;;;;16.19;81.45;101077.42;107038;1251;61943;-56
2023/06/10 06:05:21;;;;;;;9.70;4.40;;;;;;;16.32;80.88;101080.32;106923;1251;60565;-58
2023/06/10 06:07:47;;;;;;;9.00;4.40;;;;;;;16.46;80.40;101079.90;106790;1254;73844;-55
2023/06/10 06:10:17;;;;;;;10.60;4.30;;;;;;;16.55;79.72;101078.17;106913;1251;60406;-56
2023/06/10 06:12:45;;;;;;;10.50;4.50;;;;;;;16.67;79.52;101080.60;106769;1251;71423;-54
2023/06/10 06:15:11;;;;;;;9.20;4.30;;;;;;;16.76;78.57;101080.33;107097;1250;61079;-54
2023/06/10 06:17:38;;;;;;;8.30;4.30;;;;;;;16.81;78.20;101081.37;106542;1250;60537;-57
2023/06/10 06:20:06;;;;;;;7.40;4.10;;;;;;;16.97;78.14;101080.79;107460;1250;73472;-53
2023/06/10 06:22:32;;;;;;;6.60;4.00;;;;;;;17.09;77.45;101082.17;106939;1251;71249;-54
2023/06/10 06:24:59;;;;;;;12.40;4.30;;;;;;;17.25;77.27;101086.81;106863;1253;60930;-55
2023/06/10 06:27:25;;;;;;;8.40;4.40;;;;;;;17.47;76.56;101079.29;106952;1250;61571;-57
2023/06/10 06:29:52;;;;;;;11.10;4.30;;;;;;;17.62;76.19;101080.40;106725;1251;60422;-53
2023/06/10 06:32:19;;;;;;;9.80;4.80;;;;;;;17.80;75.63;101084.70;107267;1250;73470;-56
2023/06/10 06:34:45;;;;;;;10.80;4.30;;;;;;;17.92;74.46;101088.60;107380;1251;70764;-57
2023/06/10 06:37:12;;;;;;;9.40;4.10;;;;;;;18.05;74.36;101090.17;106990;1251;60454;-52
2023/06/10 06:39:39;;;;;;;8.40;4.40;;;;;;;18.16;73.13;101091.81;107209;1253;60806;-55
2023/06/10 06:42:06;;;;;;;8.40;4.30;;;;;;;18.16;72.01;101091.98;106624;1250;60966;-52
2023/06/10 06:44:32;;;;;;;8.40;4.30;;;;;;;18.11;72.24;101092.34;106735;1250;73883;-58
2023/06/10 06:46:59;;;;;;;7.40;4.20;;;;;;;18.15;72.25;101088.72;106931;1251;60537;-54
2023/06/10 06:49:25;;;;;;;8.40;3.80;;;;;;;18.21;72.23;101088.05;107692;1252;59165;-51
2023/06/10 06:51:52;;;;;;;8.90;4.10;;;;;;;18.26;71.83;101090.07;106774;1251;59584;-54
2023/06/10 06:54:19;;;;;;;9.70;4.00;;;;;;;18.30;71.72;101088.95;107309;1250;60479;-53
2023/06/10 06:56:45;;;;;;;10.80;4.70;;;;;;;18.36;71.55;101091.03;108878;1251;59448;-58
2023/06/10 06:59:13;;;;;;;8.70;4.30;;;;;;;18.40;71.38;101090.09;108848;1250;70711;-57
2023/06/10 07:01:40;;;;;;;8.70;3.80;;;;;;;18.46;71.02;101091.63;108883;1250;72567;-56
2023/06/10 07:04:07;;;;;;;9.30;4.40;;;;;;;18.50;70.88;101093.01;108422;1250;61610;-54
2023/06/10 07:06:33;;;;;;;10.10;4.10;;;;;;;18.55;70.82;101094.77;107044;1250;60355;-50
2023/06/10 07:09:04;;;;;;;8.60;4.00;;;;;;;18.61;70.59;101094.08;107391;1250;73554;-51
2023/06/10 07:11:31;;;;;;;8.90;4.40;;;;;;;18.64;70.15;101089.13;108659;1253;69949;-55
2023/06/10 07:13:57;;;;;;;9.90;4.50;;;;;;;18.70;69.93;101095.88;107331;1251;59196;-52
2023/06/10 07:16:24;;;;;;;8.70;4.20;;;;;;;18.75;69.93;101099.75;107013;1251;60578;-57
2023/06/10 07:18:50;;;;;;;7.60;4.10;;;;;;;18.80;69.49;101097.98;107299;1250;60345;-55
2023/06/10 07:21:17;;;;;;;7.90;4.20;;;;;;;18.82;69.22;101099.90;106895;1254;61028;-55
2023/06/10 07:23:44;;;;;;;7.60;4.40;;;;;;;18.87;69.26;101097.91;107051;1250;60488;-57
2023/06/10 07:26:13;;;;;;;9.60;4.20;;;;;;;18.91;68.82;101093.66;106807;1250;71765;-57
2023/06/10 07:28:40;;;;;;;8.10;4.00;;;;;;;18.94;69.18;101091.77;107430;1251;61282;-53
2023/06/10 07:31:08;;;;;;;10.20;4.50;;;;;;;18.98;69.00;101094.91;107135;1250;60347;-57
2023/06/10 07:33:34;;;;;;;8.40;4.40;;;;;;;19.04;68.99;101100.70;107302;1250;71863;-56
2023/06/10 07:36:01;;;;;;;7.70;4.30;;;;;;;19.14;68.63;101103.79;106791;1250;60501;-52
2023/06/10 07:38:27;;;;;;;7.80;4.10;;;;;;;19.16;68.31;101102.02;106828;1250;60401;-53
2023/06/10 07:40:54;;;;;;;7.20;4.30;;;;;;;19.15;68.24;101102.83;107170;1250;60418;-52
2023/06/10 07:43:20;;;;;;;9.00;4.40;;;;;;;19.14;67.99;101105.39;108404;1250;59287;-53
2023/06/10 07:45:47;;;;;;;10.40;4.30;;;;;;;19.16;68.39;101100.75;108987;1251;58401;-54
2023/06/10 07:48:13;;;;;;;8.70;4.40;;;;;;;19.24;68.36;101100.86;108640;1250;60544;-52
2023/06/10 07:50:40;;;;;;;9.40;3.90;;;;;;;19.33;68.13;101096.10;108397;1250;58265;-51
2023/06/10 07:53:07;;;;;;;8.90;4.60;;;;;;;19.40;68.08;101101.29;108691;1250;58262;-54
2023/06/10 07:55:33;;;;;;;9.70;4.70;;;;;;;19.49;68.26;101099.48;108575;1250;59226;-51
2023/06/10 07:58:00;;;;;;;8.20;4.50;;;;;;;19.58;67.57;101090.73;106889;1254;60912;-51
2023/06/10 08:00:26;;;;;;;8.80;4.30;;;;;;;19.65;67.36;101089.13;107169;1250;60395;-54
2023/06/10 08:02:53;;;;;;;11.10;4.10;;;;;;;19.72;66.79;101093.90;107009;1250;60747;-53
2023/06/10 08:05:20;;;;;;;10.30;4.30;;;;;;;19.79;66.93;101092.88;107205;1253;60415;-53
2023/06/10 08:07:47;;;;;;;10.40;4.90;;;;;;;19.89;67.06;101090.72;107400;1252;60978;-54
2023/06/10 08:10:13;;;;;;;8.30;4.00;;;;;;;20.01;66.63;101087.21;107162;1251;73868;-53
2023/06/10 08:12:40;;;;;;;10.10;4.30;;;;;;;20.11;66.35;101088.31;107277;1250;60313;-53
2023/06/10 08:15:07;;;;;;;8.00;4.70;;;;;;;20.18;65.94;101086.50;107019;1253;60422;-55
2023/06/10 08:17:34;;;;;;;10.80;4.30;;;;;;;20.26;65.81;101079.23;107100;1250;63141;-49
2023/06/10 08:20:01;;;;;;;8.20;4.00;;;;;;;20.34;65.44;101080.02;106733;1250;60430;-60
2023/06/10 08:22:29;;;;;;;8.90;4.00;;;;;;;20.40;64.40;101078.77;106721;1250;73881;-53
2023/06/10 08:24:56;;;;;;;8.00;4.20;;;;;;;20.46;64.67;101084.52;106987;1254;69961;-56
2023/06/10 08:27:22;;;;;;;9.60;4.20;;;;;;;20.58;64.66;101080.53;107935;1250;71452;-54
2023/06/10 08:29:49;;;;;;;6.40;4.10;;;;;;;20.72;64.70;101077.75;108412;1250;59260;-56
2023/06/10 08:32:15;;;;;;;7.20;3.80;;;;;;;20.86;63.82;101076.40;107669;1250;60566;-54
2023/06/10 08:34:42;;;;;;;12.80;4.10;;;;;;;20.95;63.44;101076.61;106789;1250;72875;-59
2023/06/10 08:37:08;;;;;;;9.50;3.60;;;;;;;20.97;62.87;101068.31;106594;1251;60454;-57
2023/06/10 08:39:35;;;;;;;8.50;3.70;;;;;;;21.08;63.35;101070.11;106370;1250;60584;-56
2023/06/10 08:42:19;;;;;;;8.30;3.50;;;;;;;21.23;62.93;101071.99;106684;1253;60452;-50
2023/06/10 08:44:47;;;;;;;7.50;3.60;;;;;;;21.35;62.04;101067.14;106998;1251;60421;-52
2023/06/10 08:47:15;;;;;;;6.50;3.40;;;;;;;21.42;60.96;101066.00;106843;1251;72738;-54
2023/06/10 08:49:46;;;;;;;6.30;3.90;;;;;;;21.51;61.16;101067.61;108752;1250;71268;-53
2023/06/10 08:52:20;;;;;;;6.90;3.60;;;;;;;21.67;61.22;101068.30;109399;1250;71135;-51
2023/06/10 08:54:58;;;;;;;7.40;3.50;;;;;;;21.83;60.72;101063.86;109357;1250;60883;-51
2023/06/10 08:57:26;;;;;;;7.00;3.40;;;;;;;22.03;60.53;101065.36;109409;1251;59358;-49
2023/06/10 08:59:54;;;;;;;7.90;3.60;;;;;;;22.19;59.75;101062.27;108704;1250;72685;-51
2023/06/10 09:02:22;;;;;;;8.80;3.60;;;;;;;22.32;59.24;101060.23;108665;1250;71177;-53
2023/06/10 09:04:49;;;;;;;7.60;3.50;;;;;;;22.46;59.45;101060.30;108648;1251;70175;-54
2023/06/10 09:07:16;;;;;;;8.00;3.50;;;;;;;22.65;59.11;101064.93;109356;1250;60801;-53
2023/06/10 09:09:44;;;;;;;6.70;3.50;;;;;;;22.82;58.27;101065.45;109347;1250;60327;-50
2023/06/10 09:12:14;;;;;;;6.00;3.40;;;;;;;22.99;57.92;101060.81;109385;1250;71710;-50
2023/06/10 09:14:44;;;;;;;7.30;3.70;;;;;;;23.18;56.98;101062.15;109335;1253;69919;-52
2023/06/10 09:17:10;;;;;;;7.20;3.70;;;;;;;23.30;57.13;101062.11;109335;1251;71479;-49
2023/06/10 09:19:39;;;;;;;6.10;3.10;;;;;;;23.43;56.19;101061.45;109211;1250;59883;-50
2023/06/10 09:22:06;;;;;;;8.70;3.50;;;;;;;23.56;55.39;101056.73;106841;1254;60429;-53
2023/06/10 09:24:33;;;;;;;8.40;3.50;;;;;;;23.70;55.25;101055.43;106602;1251;60447;-55
2023/06/10 09:27:07;;;;;;;7.70;3.70;;;;;;;23.86;55.11;101055.48;107578;1252;69900;-51
2023/06/10 09:29:48;;;;;;;9.00;3.50;;;;;;;23.98;54.20;101055.13;106581;1250;70610;-51
2023/06/10 09:32:16;;;;;;;6.10;3.50;;;;;;;24.07;53.40;101053.68;106644;1250;60423;-55
2023/06/10 09:34:44;;;;;;;7.60;3.60;;;;;;;24.17;54.08;101054.05;106849;1254;60498;-54
2023/06/10 09:37:12;;;;;;;9.30;3.50;;;;;;;24.34;53.37;101049.92;106822;1250;72962;-52
2023/06/10 09:39:39;;;;;;;7.10;3.30;;;;;;;24.46;52.58;101051.54;107147;1250;71214;-52
2023/06/10 09:42:26;;;;;;;6.60;3.50;;;;;;;24.59;52.87;101048.09;106431;1252;72828;-53
2023/06/10 09:44:52;;;;;;;7.40;3.30;;;;;;;24.75;52.39;101048.80;106525;1252;60436;-54
2023/06/10 09:47:22;;;;;;;7.30;3.50;;;;;;;24.88;52.23;101044.91;107292;1251;60414;-51
2023/06/10 09:49:50;;;;;;;8.40;3.40;;;;;;;24.99;51.24;101047.20;106533;1254;72873;-54
2023/06/10 09:52:24;;;;;;;8.00;3.20;;;;;;;25.10;51.98;101046.07;106653;1253;72140;-56
2023/06/10 09:54:52;;;;;;;12.40;4.40;;;;;;;25.21;51.49;101042.07;106532;1253;71267;-56
2023/06/10 09:57:20;;;;;;;8.50;3.40;;;;;;;25.29;51.23;101040.31;106731;1252;60509;-52
2023/06/10 09:59:47;;;;;;;8.30;3.40;;;;;;;25.39;51.00;101043.35;107073;1254;60902;-53
2023/06/10 10:02:17;;;;;;;6.90;3.30;;;;;;;25.52;51.96;101042.09;107177;1251;59671;-56
2023/06/10 10:04:44;;;;;;;6.40;3.40;;;;;;;25.65;50.71;101047.13;106767;1250;71362;-59
2023/06/10 10:07:11;;;;;;;8.50;3.20;;;;;;;25.72;50.60;101040.64;106886;1250;71255;-53
2023/06/10 10:09:39;;;;;;;8.70;3.40;;;;;;;25.84;50.52;101043.16;106506;1251;60532;-55
2023/06/10 10:12:14;;;;;;;7.70;3.40;;;;;;;25.95;50.20;101044.95;106677;1250;60364;-56
2023/06/10 10:14:49;;;;;;;6.50;3.50;;;;;;;26.01;49.78;101047.56;106490;1253;73083;-54
2023/06/10 10:17:17;;;;;;;5.70;3.40;;;;;;;26.09;49.81;101044.05;106452;1250;69987;-51
2023/06/10 10:19:48;;;;;;;6.80;3.40;;;;;;;26.16;49.89;101041.39;107008;1252;72092;-56
2023/06/10 10:22:26;;;;;;;5.90;3.20;;;;;;;26.26;49.95;101044.91;106915;1250;60420;-51
2023/06/10 10:24:57;;;;;;;8.70;3.50;;;;;;;26.42;50.38;101044.10;106991;1251;60912;-55
2023/06/10 10:27:28;;;;;;;6.80;3.20;;;;;;;26.52;48.96;101043.95;106775;1251;72877;-51
2023/06/10 10:29:57;;;;;;;7.90;3.50;;;;;;;26.60;49.13;101043.86;106865;1250;71543;-55
2023/06/10 10:32:40;;;;;;;8.80;3.90;;;;;;;26.70;49.27;101042.42;106580;1254;72579;-50
2023/06/10 10:35:17;;;;;;;6.50;3.70;;;;;;;26.79;48.98;101046.71;106456;1251;60379;-56
2023/06/10 10:37:43;;;;;;;6.40;3.60;;;;;;;26.89;49.04;101046.30;107298;1251;61041;-57
2023/06/10 10:40:11;;;;;;;7.10;3.30;;;;;;;26.95;48.39;101045.74;107137;1254;72653;-50
2023/06/10 10:42:39;;;;;;;7.10;4.10;;;;;;;26.99;48.48;101046.71;109331;1251;71617;-50
2023/06/10 10:45:07;;;;;;;7.70;3.60;;;;;;;27.03;48.45;101046.59;109324;1251;73202;-50
2023/06/10 10:47:37;;;;;;;6.50;3.30;;;;;;;27.10;48.88;101043.37;109349;1251;58429;-51
2023/06/10 10:50:14;;;;;;;7.30;3.70;;;;;;;27.18;48.36;101042.73;109395;1250;59111;-54
2023/06/10 10:52:54;;;;;;;5.20;3.30;;;;;;;27.25;48.46;101041.48;109339;1252;74430;-54
2023/06/10 10:55:25;;;;;;;7.20;3.40;;;;;;;27.35;48.47;101035.13;109324;1253;70914;-50
2023/06/10 10:57:56;;;;;;;7.30;3.60;;;;;;;27.48;47.86;101036.05;107695;1250;73522;-52
2023/06/10 11:00:31;;;;;;;8.10;3.70;;;;;;;27.55;47.18;101030.66;106579;1251;60303;-55
2023/06/10 11:03:04;;;;;;;7.60;3.50;;;;;;;27.61;47.24;101033.26;106785;1252;60408;-53
2023/06/10 11:05:44;;;;;;;7.80;3.90;;;;;;;27.75;46.84;101031.48;106789;1250;73091;-52
2023/06/10 11:08:34;;;;;;;5.10;3.40;;;;;;;27.83;46.07;101032.58;106654;1251;71120;-52
2023/06/10 11:11:17;;;;;;;8.70;3.90;;;;;;;27.93;45.71;101023.70;106492;1250;72477;-52
2023/06/10 11:13:57;;;;;;;5.60;3.30;;;;;;;28.04;46.14;101016.48;107597;1253;60314;-57
2023/06/10 11:16:25;;;;;;;7.50;3.80;;;;;;;28.20;46.16;101018.20;106820;1250;60496;-54
2023/06/10 11:18:56;;;;;;;8.60;3.70;;;;;;;28.26;45.10;101017.83;106639;1253;73002;-54